createdAt,value
2022-11-07T00:01:12.444Z,100274.13
2022-11-07T00:03:39.249Z,100264.31
2022-11-07T00:06:06.435Z,100276.66
2022-11-07T00:08:33.286Z,100278.19
2022-11-07T00:11:01.588Z,100282.63
2022-11-07T00:13:29.373Z,100279.75
2022-11-07T00:16:04.453Z,100290.31
2022-11-07T00:18:31.985Z,100288.25
2022-11-07T00:21:03.024Z,100292.97
2022-11-07T00:23:29.870Z,100282.41
2022-11-07T00:26:08.076Z,100290.56
2022-11-07T00:28:36.249Z,100291.56
2022-11-07T00:31:04.480Z,100292.19
2022-11-07T00:33:31.618Z,100293.56
2022-11-07T00:35:58.545Z,100295.19
2022-11-07T00:38:25.506Z,100305.38
2022-11-07T00:41:05.998Z,100297.69
2022-11-07T00:43:33.491Z,100302.22
2022-11-07T00:46:02.648Z,100301.81
2022-11-07T00:48:30.321Z,100293.63
2022-11-07T00:50:57.091Z,100297.78
2022-11-07T00:53:24.108Z,100297.19
2022-11-07T00:55:50.963Z,100311.13
2022-11-07T00:58:17.944Z,100314.31
2022-11-07T01:00:45.267Z,100307.97
2022-11-07T01:03:30.475Z,100318.25
2022-11-07T01:06:02.660Z,100309.81
2022-11-07T01:08:29.924Z,100319.34
2022-11-07T01:10:57.877Z,100319.22
2022-11-07T01:13:25.614Z,100309.16
2022-11-07T01:15:52.570Z,100316.69
2022-11-07T01:18:19.470Z,100320.16
2022-11-07T01:20:46.718Z,100321.41
2022-11-07T01:23:13.992Z,100320.38
2022-11-07T01:25:41.620Z,100337.53
2022-11-07T01:28:09.521Z,100328.66
2022-11-07T01:30:41.602Z,100330.72
2022-11-07T01:33:09.197Z,100334.84
2022-11-07T01:35:36.619Z,100332.78
2022-11-07T01:38:03.918Z,100338.09
2022-11-07T01:40:31.170Z,100334.56
2022-11-07T01:42:57.970Z,100337.81
2022-11-07T01:45:30.991Z,100337.59
2022-11-07T01:48:01.704Z,100338.69
2022-11-07T01:50:29.228Z,100342.03
2022-11-07T01:52:57.040Z,100324.00
2022-11-07T01:55:29.180Z,100331.69
2022-11-07T01:58:00.705Z,100341.94
2022-11-07T02:00:29.059Z,100351.25
2022-11-07T02:03:01.397Z,100346.81
2022-11-07T02:05:34.292Z,100345.69
2022-11-07T02:08:04.611Z,100346.72
2022-11-07T02:10:33.373Z,100342.59
2022-11-07T02:13:00.664Z,100344.06
2022-11-07T02:15:28.323Z,100347.03
2022-11-07T02:17:56.128Z,100350.50
2022-11-07T02:20:23.317Z,100342.13
2022-11-07T02:22:56.400Z,100350.53
2022-11-07T02:25:23.463Z,100359.69
2022-11-07T02:27:54.356Z,100361.38
2022-11-07T02:30:26.073Z,100354.50
2022-11-07T02:32:53.043Z,100362.47
2022-11-07T02:35:42.614Z,100359.69
2022-11-07T02:38:11.282Z,100352.16
2022-11-07T02:40:39.110Z,100364.84
2022-11-07T02:43:09.584Z,100362.44
2022-11-07T02:45:39.338Z,100358.63
2022-11-07T02:48:06.742Z,100366.56
2022-11-07T02:50:33.826Z,100374.31
2022-11-07T02:53:00.601Z,100360.94
2022-11-07T02:55:27.655Z,100374.91
2022-11-07T02:57:54.439Z,100358.63
2022-11-07T03:00:21.236Z,100375.78
2022-11-07T03:02:48.100Z,100371.63
2022-11-07T03:05:17.674Z,100376.00
2022-11-07T03:07:45.719Z,100374.47
2022-11-07T03:10:13.511Z,100374.75
2022-11-07T03:12:40.344Z,100367.97
2022-11-07T03:15:09.242Z,100379.59
2022-11-07T03:17:36.080Z,100375.94
2022-11-07T03:20:03.959Z,100382.00
2022-11-07T03:22:30.984Z,100388.34
2022-11-07T03:24:57.757Z,100389.84
2022-11-07T03:27:24.584Z,100399.16
2022-11-07T03:29:51.395Z,100413.47
2022-11-07T03:32:18.192Z,100410.38
2022-11-07T03:34:45.325Z,100424.13
2022-11-07T03:37:12.111Z,100417.09
2022-11-07T03:39:38.956Z,100432.03
2022-11-07T03:42:05.899Z,100423.13
2022-11-07T03:44:32.755Z,100433.50
2022-11-07T03:46:59.544Z,100416.91
2022-11-07T03:49:26.284Z,100414.09
2022-11-07T03:51:53.058Z,100413.34
2022-11-07T03:54:19.820Z,100420.44
2022-11-07T03:56:46.565Z,100415.66
2022-11-07T03:59:13.364Z,100414.69
2022-11-07T04:01:40.305Z,100422.75
2022-11-07T04:04:07.100Z,100432.59
2022-11-07T04:06:33.850Z,100428.88
2022-11-07T04:09:00.629Z,100423.44
2022-11-07T04:11:45.999Z,100421.41
2022-11-07T04:14:31.339Z,100424.19
2022-11-07T04:17:16.633Z,100417.94
2022-11-07T04:19:43.423Z,100425.50
2022-11-07T04:22:10.383Z,100423.41
2022-11-07T04:24:40.307Z,100426.88
2022-11-07T04:27:30.716Z,100416.75
2022-11-07T04:29:57.500Z,100420.00
2022-11-07T04:32:24.683Z,100434.81
2022-11-07T04:34:52.339Z,100431.66
2022-11-07T04:37:19.623Z,100438.19
2022-11-07T04:39:46.400Z,100434.78
2022-11-07T04:42:13.172Z,100439.81
2022-11-07T04:44:39.942Z,100430.19
2022-11-07T04:47:06.717Z,100429.34
2022-11-07T04:49:34.157Z,100432.72
2022-11-07T04:52:00.961Z,100440.56
2022-11-07T04:54:27.805Z,100437.91
2022-11-07T04:56:54.623Z,100441.81
2022-11-07T04:59:21.400Z,100439.69
2022-11-07T05:01:48.268Z,100439.66
2022-11-07T05:04:15.073Z,100449.97
2022-11-07T05:06:42.207Z,100458.06
2022-11-07T05:09:14.476Z,100459.69
2022-11-07T05:11:41.208Z,100459.78
2022-11-07T05:14:08.517Z,100460.84
2022-11-07T05:16:35.966Z,100459.84
2022-11-07T05:19:02.760Z,100464.66
2022-11-07T05:21:29.545Z,100469.03
2022-11-07T05:23:56.279Z,100469.22
2022-11-07T05:26:23.035Z,100469.72
2022-11-07T05:28:49.789Z,100477.06
2022-11-07T05:31:17.770Z,100466.22
2022-11-07T05:33:44.740Z,100462.72
2022-11-07T05:36:18.354Z,100471.84
2022-11-07T05:38:47.587Z,100465.84
2022-11-07T05:41:16.131Z,100473.38
2022-11-07T05:43:43.638Z,100475.00
2022-11-07T05:46:10.697Z,100479.41
2022-11-07T05:48:38.089Z,100481.31
2022-11-07T05:51:07.030Z,100481.44
2022-11-07T05:53:34.247Z,100477.06
2022-11-07T05:56:01.331Z,100482.66
2022-11-07T05:58:28.412Z,100475.13
2022-11-07T06:00:55.191Z,100482.75
2022-11-07T06:03:22.665Z,100480.31
2022-11-07T06:05:49.563Z,100483.88
2022-11-07T06:08:16.735Z,100487.84
2022-11-07T06:10:44.011Z,100482.81
2022-11-07T06:13:14.706Z,100481.00
2022-11-07T06:15:43.417Z,100485.78
2022-11-07T06:18:16.908Z,100486.63
2022-11-07T06:20:44.196Z,100492.44
2022-11-07T06:23:11.100Z,100494.31
2022-11-07T06:25:38.304Z,100502.53
2022-11-07T06:28:09.517Z,100503.94
2022-11-07T06:30:37.096Z,100504.78
2022-11-07T06:33:21.915Z,100504.38
2022-11-07T06:35:48.707Z,100509.28
2022-11-07T06:38:15.791Z,100508.59
2022-11-07T06:40:43.427Z,100495.47
2022-11-07T06:43:16.252Z,100493.94
2022-11-07T06:45:44.587Z,100511.22
2022-11-07T06:48:12.043Z,100511.34
2022-11-07T06:50:39.334Z,100506.69
2022-11-07T06:53:08.453Z,100503.63
2022-11-07T06:55:36.827Z,100507.41
2022-11-07T06:58:04.789Z,100515.59
2022-11-07T07:00:33.967Z,100517.00
2022-11-07T07:03:00.955Z,100521.31
2022-11-07T07:05:27.899Z,100523.38
2022-11-07T07:07:55.935Z,100525.03
2022-11-07T07:10:25.224Z,100532.66
2022-11-07T07:12:56.631Z,100535.47
2022-11-07T07:15:24.120Z,100532.09
2022-11-07T07:17:50.992Z,100529.72
2022-11-07T07:20:17.845Z,100542.94
2022-11-07T07:22:45.249Z,100539.97
2022-11-07T07:25:12.101Z,100549.13
2022-11-07T07:27:38.883Z,100549.16
2022-11-07T07:30:06.288Z,100545.59
2022-11-07T07:32:35.489Z,100545.91
2022-11-07T07:35:02.371Z,100549.44
2022-11-07T07:37:29.379Z,100546.75
2022-11-07T07:39:56.478Z,100549.13
2022-11-07T07:42:23.378Z,100537.75
2022-11-07T07:44:50.157Z,100548.75
2022-11-07T07:47:16.893Z,100544.91
2022-11-07T07:49:43.678Z,100554.06
2022-11-07T07:52:10.402Z,100555.38
2022-11-07T07:54:37.706Z,100565.88
2022-11-07T07:57:04.515Z,100565.03
2022-11-07T07:59:31.276Z,100565.88
2022-11-07T08:01:58.137Z,100568.50
2022-11-07T08:04:25.285Z,100571.31
2022-11-07T08:06:52.038Z,100572.06
2022-11-07T08:09:18.817Z,100558.84
2022-11-07T08:11:45.585Z,100569.38
2022-11-07T08:14:12.467Z,100570.56
2022-11-07T08:16:39.479Z,100569.03
2022-11-07T08:19:06.380Z,100574.91
2022-11-07T08:21:33.244Z,100576.47
2022-11-07T08:24:00.953Z,100586.16
2022-11-07T08:26:27.795Z,100580.22
2022-11-07T08:28:55.112Z,100592.19
2022-11-07T08:31:22.498Z,100598.53
2022-11-07T08:33:49.327Z,100593.91
2022-11-07T08:36:16.161Z,100587.88
2022-11-07T08:38:42.951Z,100596.25
2022-11-07T08:41:09.740Z,100588.59
2022-11-07T08:43:36.489Z,100588.94
2022-11-07T08:46:03.379Z,100582.78
2022-11-07T08:48:30.345Z,100592.03
2022-11-07T08:50:57.895Z,100599.72
2022-11-07T08:53:26.659Z,100595.00
2022-11-07T08:56:00.164Z,100603.75
2022-11-07T08:58:29.966Z,100597.69
2022-11-07T09:00:57.378Z,100601.81
2022-11-07T09:03:44.369Z,100603.22
2022-11-07T09:06:11.381Z,100606.66
2022-11-07T09:08:38.340Z,100612.25
2022-11-07T09:11:05.792Z,100609.44
2022-11-07T09:13:34.043Z,100611.34
2022-11-07T09:16:03.047Z,100608.47
2022-11-07T09:18:32.138Z,100609.47
2022-11-07T09:20:59.551Z,100605.84
2022-11-07T09:23:27.689Z,100605.25
2022-11-07T09:25:54.994Z,100615.28
2022-11-07T09:28:21.958Z,100617.13
2022-11-07T09:30:54.398Z,100612.38
2022-11-07T09:33:21.620Z,100606.19
2022-11-07T09:35:48.466Z,100609.97
2022-11-07T09:38:16.538Z,100620.78
2022-11-07T09:41:06.235Z,100617.22
2022-11-07T09:43:39.893Z,100608.44
2022-11-07T09:46:33.253Z,100623.09
2022-11-07T09:49:08.957Z,100620.03
2022-11-07T09:51:39.721Z,100625.66
2022-11-07T09:54:18.916Z,100620.19
2022-11-07T09:56:46.848Z,100629.75
2022-11-07T09:59:21.421Z,100619.72
2022-11-07T10:01:48.513Z,100629.34
2022-11-07T10:04:25.897Z,100633.69
2022-11-07T10:07:04.370Z,100635.72
2022-11-07T10:10:00.979Z,100633.53
2022-11-07T10:12:44.489Z,100651.63
2022-11-07T10:15:39.852Z,100654.66
2022-11-07T10:18:52.003Z,100655.50
2022-11-07T10:21:37.711Z,100659.22
2022-11-07T10:24:46.521Z,100663.13
2022-11-07T10:27:13.956Z,100669.88
2022-11-07T10:29:52.414Z,100666.84
2022-11-07T10:32:28.374Z,100669.72
2022-11-07T10:35:27.149Z,100671.63
2022-11-07T10:38:04.732Z,100669.06
2022-11-07T10:40:38.921Z,100676.69
2022-11-07T10:43:13.168Z,100679.47
2022-11-07T10:45:40.891Z,100682.78
2022-11-07T10:48:07.688Z,100688.91
2022-11-07T10:50:34.490Z,100686.78
2022-11-07T10:53:05.604Z,100686.44
2022-11-07T10:55:43.412Z,100690.84
2022-11-07T10:58:27.043Z,100698.63
2022-11-07T11:01:12.569Z,100687.16
2022-11-07T11:03:44.695Z,100690.69
2022-11-07T11:06:18.289Z,100693.34
2022-11-07T11:08:46.774Z,100701.19
2022-11-07T11:11:34.636Z,100681.81
2022-11-07T11:14:21.774Z,100692.31
2022-11-07T11:16:54.611Z,100689.69
2022-11-07T11:19:25.860Z,100688.69
2022-11-07T11:21:55.538Z,100681.31
2022-11-07T11:24:31.726Z,100682.72
2022-11-07T11:27:12.626Z,100688.81
2022-11-07T11:29:45.453Z,100679.66
2022-11-07T11:32:36.472Z,100683.41
2022-11-07T11:35:21.620Z,100690.13
2022-11-07T11:37:58.070Z,100677.50
2022-11-07T11:40:25.382Z,100704.19
2022-11-07T11:43:04.212Z,100696.97
2022-11-07T11:45:40.452Z,100690.03
2022-11-07T11:48:31.967Z,100702.28
2022-11-07T11:51:12.956Z,100702.81
2022-11-07T11:53:39.815Z,100701.50
2022-11-07T11:56:06.526Z,100700.78
2022-11-07T11:58:52.363Z,100697.41
2022-11-07T12:01:38.134Z,100703.06
2022-11-07T12:04:42.761Z,100693.66
2022-11-07T12:07:21.608Z,100695.25
2022-11-07T12:10:00.988Z,100696.13
2022-11-07T12:12:48.549Z,100696.63
2022-11-07T12:15:47.154Z,100705.06
2022-11-07T12:18:32.173Z,100700.94
2022-11-07T12:21:04.647Z,100710.00
2022-11-07T12:23:52.597Z,100701.72
2022-11-07T12:26:36.095Z,100706.00
2022-11-07T12:29:21.110Z,100708.38
2022-11-07T12:31:50.709Z,100703.91
2022-11-07T12:34:20.438Z,100705.06
2022-11-07T12:37:03.019Z,100701.97
2022-11-07T12:40:02.587Z,100710.72
2022-11-07T12:42:50.332Z,100714.03
2022-11-07T12:46:00.544Z,100703.00
2022-11-07T12:48:55.430Z,100699.88
2022-11-07T12:51:41.059Z,100705.75
2022-11-07T12:54:22.090Z,100701.91
2022-11-07T12:56:50.770Z,100697.03
2022-11-07T12:59:23.935Z,100689.81
2022-11-07T13:02:25.642Z,100694.78
2022-11-07T13:05:13.154Z,100698.50
2022-11-07T13:07:53.959Z,100699.63
2022-11-07T13:10:40.827Z,100705.34
2022-11-07T13:13:47.133Z,100692.13
2022-11-07T13:16:29.169Z,100696.34
2022-11-07T13:19:07.714Z,100705.72
2022-11-07T13:21:44.056Z,100709.28
2022-11-07T13:24:22.251Z,100708.31
2022-11-07T13:26:49.062Z,100702.53
2022-11-07T13:29:23.676Z,100704.41
2022-11-07T13:32:06.010Z,100708.47
2022-11-07T13:34:44.800Z,100708.22
2022-11-07T13:37:22.446Z,100712.31
2022-11-07T13:39:54.632Z,100706.72
2022-11-07T13:42:24.128Z,100711.81
2022-11-07T13:44:54.574Z,100713.56
2022-11-07T13:47:27.989Z,100715.19
2022-11-07T13:50:00.854Z,100717.59
2022-11-07T13:52:56.734Z,100706.22
2022-11-07T13:55:41.445Z,100723.25
2022-11-07T13:58:12.998Z,100715.84
2022-11-07T14:00:40.216Z,100721.16
2022-11-07T14:03:07.134Z,100717.94
2022-11-07T14:05:36.399Z,100716.66
2022-11-07T14:08:29.344Z,100719.94
2022-11-07T14:10:56.182Z,100712.72
2022-11-07T14:13:26.644Z,100703.19
2022-11-07T14:15:56.921Z,100711.59
2022-11-07T14:18:27.060Z,100716.88
2022-11-07T14:20:57.456Z,100710.31
2022-11-07T14:23:28.060Z,100711.16
2022-11-07T14:25:59.608Z,100713.88
2022-11-07T14:28:39.652Z,100719.03
2022-11-07T14:31:14.090Z,100718.97
2022-11-07T14:33:48.285Z,100721.44
2022-11-07T14:36:15.117Z,100725.75
2022-11-07T14:38:50.362Z,100722.22
2022-11-07T14:41:19.907Z,100729.88
2022-11-07T14:43:48.252Z,100724.09
2022-11-07T14:46:22.359Z,100725.41
2022-11-07T14:48:51.440Z,100722.66
2022-11-07T14:51:23.617Z,100722.63
2022-11-07T14:53:56.300Z,100722.19
2022-11-07T14:56:28.782Z,100727.06
2022-11-07T14:58:56.173Z,100729.59
2022-11-07T15:01:30.486Z,100727.75
2022-11-07T15:04:30.853Z,100730.06
2022-11-07T15:06:57.606Z,100724.91
2022-11-07T15:09:33.509Z,100733.88
2022-11-07T15:12:01.155Z,100734.28
2022-11-07T15:14:34.630Z,100728.53
2022-11-07T15:17:04.389Z,100730.50
2022-11-07T15:19:36.969Z,100723.75
2022-11-07T15:22:05.168Z,100721.59
2022-11-07T15:24:46.267Z,100726.19
2022-11-07T15:27:20.635Z,100724.69
2022-11-07T15:30:01.984Z,100728.22
2022-11-07T15:32:36.077Z,100722.50
2022-11-07T15:35:42.349Z,100726.47
2022-11-07T15:38:02.135Z,100726.69
2022-11-07T15:40:30.144Z,100732.78
2022-11-07T15:42:57.203Z,100727.81
2022-11-07T15:45:24.493Z,100734.41
2022-11-07T15:47:51.890Z,100738.41
2022-11-07T15:50:21.766Z,100740.22
2022-11-07T15:52:49.686Z,100738.91
2022-11-07T15:55:19.020Z,100746.88
2022-11-07T15:57:48.830Z,100739.31
2022-11-07T16:00:18.605Z,100738.34
2022-11-07T16:02:45.926Z,100738.59
2022-11-07T16:05:13.665Z,100738.03
2022-11-07T16:07:42.523Z,100740.72
2022-11-07T16:10:22.347Z,100734.03
2022-11-07T16:12:50.164Z,100738.47
2022-11-07T16:15:18.709Z,100740.56
2022-11-07T16:17:45.958Z,100743.28
2022-11-07T16:20:18.984Z,100741.31
2022-11-07T16:22:46.991Z,100735.28
2022-11-07T16:25:22.017Z,100739.63
2022-11-07T16:27:55.710Z,100746.03
2022-11-07T16:30:23.100Z,100743.75
2022-11-07T16:32:49.889Z,100745.84
2022-11-07T16:35:16.736Z,100752.69
2022-11-07T16:37:43.532Z,100748.97
2022-11-07T16:40:16.389Z,100749.06
2022-11-07T16:42:43.164Z,100756.84
2022-11-07T16:45:15.448Z,100748.91
2022-11-07T16:47:44.144Z,100750.44
2022-11-07T16:50:16.063Z,100758.06
2022-11-07T16:52:42.880Z,100749.78
2022-11-07T16:55:17.874Z,100763.16
2022-11-07T16:57:44.801Z,100755.19
2022-11-07T17:00:23.327Z,100748.69
2022-11-07T17:02:50.537Z,100746.56
2022-11-07T17:05:17.705Z,100740.50
2022-11-07T17:07:44.652Z,100750.00
2022-11-07T17:10:17.179Z,100748.78
2022-11-07T17:12:44.404Z,100745.34
2022-11-07T17:15:11.321Z,100750.47
2022-11-07T17:17:38.237Z,100743.50
2022-11-07T17:20:06.952Z,100747.41
2022-11-07T17:22:33.781Z,100747.25
2022-11-07T17:25:00.588Z,100745.13
2022-11-07T17:27:28.638Z,100741.88
2022-11-07T17:29:55.528Z,100748.88
2022-11-07T17:32:22.478Z,100747.81
2022-11-07T17:35:10.599Z,100752.72
2022-11-07T17:37:36.712Z,100745.13
2022-11-07T17:40:04.975Z,100750.94
2022-11-07T17:42:37.591Z,100749.13
2022-11-07T17:45:06.033Z,100738.38
2022-11-07T17:47:34.458Z,100743.38
2022-11-07T17:50:01.548Z,100746.66
2022-11-07T17:52:30.420Z,100733.94
2022-11-07T17:54:57.231Z,100740.84
2022-11-07T17:57:24.023Z,100746.78
2022-11-07T17:59:51.722Z,100749.72
2022-11-07T18:02:19.863Z,100739.72
2022-11-07T18:04:47.502Z,100738.66
2022-11-07T18:07:14.303Z,100744.25
2022-11-07T18:09:41.879Z,100740.69
2022-11-07T18:12:10.195Z,100740.38
2022-11-07T18:14:37.363Z,100740.22
2022-11-07T18:17:04.661Z,100739.81
2022-11-07T18:19:31.702Z,100745.88
2022-11-07T18:21:58.746Z,100741.06
2022-11-07T18:24:25.663Z,100743.00
2022-11-07T18:26:53.421Z,100740.97
2022-11-07T18:29:20.210Z,100718.63
2022-11-07T18:31:51.343Z,100731.03
2022-11-07T18:34:18.350Z,100739.81
2022-11-07T18:36:46.102Z,100736.94
2022-11-07T18:39:18.628Z,100734.91
2022-11-07T18:41:45.818Z,100736.81
2022-11-07T18:44:13.173Z,100736.81
2022-11-07T18:46:42.746Z,100733.50
2022-11-07T18:49:10.860Z,100734.19
2022-11-07T18:51:37.943Z,100739.53
2022-11-07T18:54:06.513Z,100738.66
2022-11-07T18:56:33.788Z,100733.91
2022-11-07T18:59:00.674Z,100737.50
2022-11-07T19:01:30.834Z,100738.31
2022-11-07T19:04:01.265Z,100729.34
2022-11-07T19:06:29.684Z,100727.66
2022-11-07T19:08:56.517Z,100728.53
2022-11-07T19:11:29.487Z,100731.41
2022-11-07T19:14:00.315Z,100728.47
2022-11-07T19:16:27.225Z,100734.00
2022-11-07T19:18:54.164Z,100736.06
2022-11-07T19:21:23.396Z,100718.28
2022-11-07T19:23:50.532Z,100727.13
2022-11-07T19:26:19.179Z,100732.63
2022-11-07T19:28:46.812Z,100729.63
2022-11-07T19:31:13.739Z,100721.44
2022-11-07T19:33:41.772Z,100724.25
2022-11-07T19:36:14.721Z,100728.81
2022-11-07T19:38:41.595Z,100727.25
2022-11-07T19:41:09.956Z,100723.97
2022-11-07T19:43:36.813Z,100733.38
2022-11-07T19:46:08.817Z,100730.56
2022-11-07T19:48:35.634Z,100734.91
2022-11-07T19:51:07.541Z,100729.81
2022-11-07T19:53:34.469Z,100733.00
2022-11-07T19:56:14.344Z,100734.84
2022-11-07T19:58:42.360Z,100731.38
2022-11-07T20:01:15.367Z,100731.28
2022-11-07T20:03:47.156Z,100734.41
2022-11-07T20:06:15.841Z,100726.41
2022-11-07T20:08:43.747Z,100727.44
2022-11-07T20:11:14.005Z,100730.84
2022-11-07T20:13:41.049Z,100737.19
2022-11-07T20:16:09.160Z,100738.81
2022-11-07T20:18:37.318Z,100738.91
2022-11-07T20:21:06.713Z,100740.75
2022-11-07T20:23:34.064Z,100736.50
2022-11-07T20:26:04.683Z,100740.13
2022-11-07T20:28:31.448Z,100735.16
2022-11-07T20:30:58.237Z,100739.78
2022-11-07T20:33:25.186Z,100747.91
2022-11-07T20:36:00.492Z,100744.13
2022-11-07T20:38:28.583Z,100749.50
2022-11-07T20:40:55.827Z,100749.81
2022-11-07T20:43:23.044Z,100745.94
2022-11-07T20:45:50.591Z,100754.41
2022-11-07T20:48:18.171Z,100749.09
2022-11-07T20:50:45.443Z,100753.56
2022-11-07T20:53:12.896Z,100749.59
2022-11-07T20:55:43.898Z,100751.47
2022-11-07T20:58:11.756Z,100753.88
2022-11-07T21:00:40.779Z,100757.91
2022-11-07T21:03:13.112Z,100750.25
2022-11-07T21:05:39.949Z,100764.28
2022-11-07T21:08:06.774Z,100757.19
2022-11-07T21:10:33.570Z,100753.31
2022-11-07T21:13:00.317Z,100760.59
2022-11-07T21:15:27.175Z,100758.38
2022-11-07T21:17:53.976Z,100771.25
2022-11-07T21:20:20.738Z,100766.88
2022-11-07T21:22:50.831Z,100774.50
2022-11-07T21:25:17.693Z,100758.56
2022-11-07T21:27:44.512Z,100771.56
2022-11-07T21:30:13.047Z,100773.91
2022-11-07T21:32:39.963Z,100772.75
2022-11-07T21:35:07.133Z,100770.69
2022-11-07T21:37:34.028Z,100766.94
2022-11-07T21:40:00.781Z,100764.47
2022-11-07T21:42:27.610Z,100762.94
2022-11-07T21:44:54.405Z,100768.78
2022-11-07T21:47:21.161Z,100765.84
2022-11-07T21:49:49.806Z,100767.94
2022-11-07T21:52:17.330Z,100770.44
2022-11-07T21:54:44.988Z,100770.66
2022-11-07T21:57:11.814Z,100781.53
2022-11-07T21:59:38.601Z,100777.53
2022-11-07T22:02:05.580Z,100779.09
2022-11-07T22:04:32.674Z,100776.00
2022-11-07T22:06:59.521Z,100780.31
2022-11-07T22:09:26.314Z,100780.31
2022-11-07T22:11:53.287Z,100784.75
2022-11-07T22:14:22.281Z,100784.06
2022-11-07T22:16:50.787Z,100784.13
2022-11-07T22:19:18.917Z,100780.03
2022-11-07T22:21:45.763Z,100779.56
2022-11-07T22:24:12.526Z,100790.75
2022-11-07T22:26:39.380Z,100784.34
2022-11-07T22:29:06.236Z,100776.78
2022-11-07T22:31:33.102Z,100776.66
2022-11-07T22:34:00.889Z,100784.16
2022-11-07T22:36:28.625Z,100779.09
2022-11-07T22:38:57.504Z,100781.81
2022-11-07T22:41:25.790Z,100786.63
2022-11-07T22:43:53.907Z,100775.81
2022-11-07T22:46:23.694Z,100776.03
2022-11-07T22:48:51.586Z,100773.75
2022-11-07T22:51:21.895Z,100770.13
2022-11-07T22:53:54.792Z,100774.59
2022-11-07T22:56:21.642Z,100778.63
2022-11-07T22:58:48.556Z,100773.22
2022-11-07T23:01:27.086Z,100775.28
2022-11-07T23:03:54.394Z,100760.56
2022-11-07T23:06:22.113Z,100761.16
2022-11-07T23:08:49.853Z,100768.75
2022-11-07T23:11:45.203Z,100774.44
2022-11-07T23:14:12.463Z,100778.31
2022-11-07T23:16:43.543Z,100773.97
2022-11-07T23:19:13.327Z,100777.69
2022-11-07T23:21:40.594Z,100773.00
2022-11-07T23:24:07.722Z,100774.88
2022-11-07T23:26:35.007Z,100775.13
2022-11-07T23:29:10.050Z,100780.13
2022-11-07T23:31:38.265Z,100778.16
2022-11-07T23:34:05.160Z,100775.09
2022-11-07T23:36:32.054Z,100775.19
2022-11-07T23:39:06.337Z,100769.44
2022-11-07T23:41:33.758Z,100767.13
2022-11-07T23:44:00.892Z,100775.53
2022-11-07T23:46:46.155Z,100768.16
2022-11-07T23:49:31.398Z,100771.09
2022-11-07T23:51:58.416Z,100765.03
2022-11-07T23:54:43.905Z,100771.72
2022-11-07T23:57:10.732Z,100765.22
2022-11-07T23:59:56.184Z,100769.44
